sensor_id;sensor_type;location;lat;lon;timestamp;P1;durP1;ratioP1;P2;durP2;ratioP2
8694;SDS011;65580;49.446;6.854;2023-03-13T00:01:21;11.90;;;2.35;;
8694;SDS011;65580;49.446;6.854;2023-03-13T00:05:26;11.63;;;2.05;;
8694;SDS011;65580;49.446;6.854;2023-03-13T00:09:29;22.10;;;2.50;;
8694;SDS011;65580;49.446;6.854;2023-03-13T00:13:32;11.48;;;2.33;;
8694;SDS011;65580;49.446;6.854;2023-03-13T00:17:37;16.20;;;2.30;;
8694;SDS011;65580;49.446;6.854;2023-03-13T00:21:40;7.15;;;2.00;;
8694;SDS011;65580;49.446;6.854;2023-03-13T00:25:43;18.48;;;2.42;;
8694;SDS011;65580;49.446;6.854;2023-03-13T00:29:46;12.35;;;2.38;;
8694;SDS011;65580;49.446;6.854;2023-03-13T00:33:52;13.15;;;2.17;;
8694;SDS011;65580;49.446;6.854;2023-03-13T00:37:56;17.48;;;2.83;;
8694;SDS011;65580;49.446;6.854;2023-03-13T00:41:59;13.95;;;2.10;;
8694;SDS011;65580;49.446;6.854;2023-03-13T00:46:04;10.25;;;2.47;;
8694;SDS011;65580;49.446;6.854;2023-03-13T00:50:10;10.95;;;2.45;;
8694;SDS011;65580;49.446;6.854;2023-03-13T00:54:13;11.35;;;2.75;;
8694;SDS011;65580;49.446;6.854;2023-03-13T00:58:17;9.68;;;2.20;;
8694;SDS011;65580;49.446;6.854;2023-03-13T01:06:26;14.95;;;2.53;;
8694;SDS011;65580;49.446;6.854;2023-03-13T01:10:32;13.75;;;2.53;;
8694;SDS011;65580;49.446;6.854;2023-03-13T01:14:36;14.43;;;2.55;;
8694;SDS011;65580;49.446;6.854;2023-03-13T01:18:40;12.15;;;2.40;;
8694;SDS011;65580;49.446;6.854;2023-03-13T01:22:46;12.75;;;2.08;;
8694;SDS011;65580;49.446;6.854;2023-03-13T01:26:49;8.38;;;2.13;;
8694;SDS011;65580;49.446;6.854;2023-03-13T01:30:55;10.25;;;3.05;;
8694;SDS011;65580;49.446;6.854;2023-03-13T01:34:58;12.38;;;2.50;;
8694;SDS011;65580;49.446;6.854;2023-03-13T01:39:03;14.65;;;2.58;;
8694;SDS011;65580;49.446;6.854;2023-03-13T01:43:18;15.95;;;2.20;;
8694;SDS011;65580;49.446;6.854;2023-03-13T01:47:28;11.38;;;2.38;;
8694;SDS011;65580;49.446;6.854;2023-03-13T01:51:31;10.07;;;2.17;;
8694;SDS011;65580;49.446;6.854;2023-03-13T01:55:37;16.45;;;2.42;;
8694;SDS011;65580;49.446;6.854;2023-03-13T01:59:42;10.50;;;2.35;;
8694;SDS011;65580;49.446;6.854;2023-03-13T02:03:50;14.85;;;2.88;;
8694;SDS011;65580;49.446;6.854;2023-03-13T02:12:00;9.38;;;2.38;;
8694;SDS011;65580;49.446;6.854;2023-03-13T02:16:08;11.80;;;3.03;;
8694;SDS011;65580;49.446;6.854;2023-03-13T02:20:13;12.90;;;3.15;;
8694;SDS011;65580;49.446;6.854;2023-03-13T02:24:19;10.30;;;3.40;;
8694;SDS011;65580;49.446;6.854;2023-03-13T02:28:28;7.75;;;2.90;;
8694;SDS011;65580;49.446;6.854;2023-03-13T02:32:35;7.97;;;2.60;;
8694;SDS011;65580;49.446;6.854;2023-03-13T02:36:41;7.25;;;2.92;;
8694;SDS011;65580;49.446;6.854;2023-03-13T02:40:45;10.43;;;2.85;;
8694;SDS011;65580;49.446;6.854;2023-03-13T02:44:54;11.00;;;3.80;;
8694;SDS011;65580;49.446;6.854;2023-03-13T02:48:57;12.80;;;4.30;;
8694;SDS011;65580;49.446;6.854;2023-03-13T02:53:02;6.40;;;3.70;;
8694;SDS011;65580;49.446;6.854;2023-03-13T02:57:06;9.63;;;4.38;;
8694;SDS011;65580;49.446;6.854;2023-03-13T03:01:17;10.88;;;4.45;;
8694;SDS011;65580;49.446;6.854;2023-03-13T03:05:21;16.10;;;7.55;;
8694;SDS011;65580;49.446;6.854;2023-03-13T03:09:24;14.40;;;6.03;;
8694;SDS011;65580;49.446;6.854;2023-03-13T03:13:30;16.95;;;6.30;;
8694;SDS011;65580;49.446;6.854;2023-03-13T03:18:02;30.30;;;11.23;;
8694;SDS011;65580;49.446;6.854;2023-03-13T03:22:05;25.67;;;10.95;;
8694;SDS011;65580;49.446;6.854;2023-03-13T03:26:07;27.85;;;13.55;;
8694;SDS011;65580;49.446;6.854;2023-03-13T03:30:11;25.42;;;13.02;;
8694;SDS011;65580;49.446;6.854;2023-03-13T03:34:16;21.65;;;9.63;;
8694;SDS011;65580;49.446;6.854;2023-03-13T03:38:19;21.20;;;10.90;;
8694;SDS011;65580;49.446;6.854;2023-03-13T03:42:22;17.73;;;9.63;;
8694;SDS011;65580;49.446;6.854;2023-03-13T03:46:25;28.08;;;12.50;;
8694;SDS011;65580;49.446;6.854;2023-03-13T03:54:33;20.08;;;9.32;;
8694;SDS011;65580;49.446;6.854;2023-03-13T03:58:36;13.95;;;7.03;;
8694;SDS011;65580;49.446;6.854;2023-03-13T04:02:40;14.30;;;8.35;;
8694;SDS011;65580;49.446;6.854;2023-03-13T04:06:45;13.13;;;6.93;;
8694;SDS011;65580;49.446;6.854;2023-03-13T04:10:50;14.20;;;7.35;;
8694;SDS011;65580;49.446;6.854;2023-03-13T04:14:53;13.43;;;7.28;;
8694;SDS011;65580;49.446;6.854;2023-03-13T04:18:56;8.40;;;4.55;;
8694;SDS011;65580;49.446;6.854;2023-03-13T04:23:01;7.43;;;4.70;;
8694;SDS011;65580;49.446;6.854;2023-03-13T04:27:07;10.25;;;4.57;;
8694;SDS011;65580;49.446;6.854;2023-03-13T04:31:10;6.93;;;3.00;;
8694;SDS011;65580;49.446;6.854;2023-03-13T04:35:13;7.35;;;3.17;;
8694;SDS011;65580;49.446;6.854;2023-03-13T04:39:17;4.88;;;2.53;;
8694;SDS011;65580;49.446;6.854;2023-03-13T04:43:21;5.90;;;3.00;;
8694;SDS011;65580;49.446;6.854;2023-03-13T04:47:24;5.90;;;3.80;;
8694;SDS011;65580;49.446;6.854;2023-03-13T04:51:27;5.22;;;3.78;;
8694;SDS011;65580;49.446;6.854;2023-03-13T04:55:35;7.97;;;5.50;;
8694;SDS011;65580;49.446;6.854;2023-03-13T04:59:38;7.95;;;5.85;;
8694;SDS011;65580;49.446;6.854;2023-03-13T05:03:43;14.15;;;7.72;;
8694;SDS011;65580;49.446;6.854;2023-03-13T05:07:47;13.57;;;6.53;;
8694;SDS011;65580;49.446;6.854;2023-03-13T05:11:51;7.72;;;5.50;;
8694;SDS011;65580;49.446;6.854;2023-03-13T05:15:58;10.98;;;5.40;;
8694;SDS011;65580;49.446;6.854;2023-03-13T05:20:01;6.97;;;4.70;;
8694;SDS011;65580;49.446;6.854;2023-03-13T05:24:07;5.22;;;3.53;;
8694;SDS011;65580;49.446;6.854;2023-03-13T05:28:12;8.65;;;4.55;;
8694;SDS011;65580;49.446;6.854;2023-03-13T05:32:17;7.38;;;3.47;;
8694;SDS011;65580;49.446;6.854;2023-03-13T05:36:21;5.38;;;3.03;;
8694;SDS011;65580;49.446;6.854;2023-03-13T05:40:25;3.65;;;2.30;;
8694;SDS011;65580;49.446;6.854;2023-03-13T05:44:29;3.55;;;2.13;;
8694;SDS011;65580;49.446;6.854;2023-03-13T05:48:32;3.00;;;1.90;;
8694;SDS011;65580;49.446;6.854;2023-03-13T05:52:35;3.72;;;1.77;;
8694;SDS011;65580;49.446;6.854;2023-03-13T05:56:38;2.10;;;1.65;;
8694;SDS011;65580;49.446;6.854;2023-03-13T06:00:43;3.42;;;2.60;;
8694;SDS011;65580;49.446;6.854;2023-03-13T06:04:47;4.28;;;2.15;;
8694;SDS011;65580;49.446;6.854;2023-03-13T06:08:52;3.17;;;2.25;;
8694;SDS011;65580;49.446;6.854;2023-03-13T06:12:55;3.47;;;2.10;;
8694;SDS011;65580;49.446;6.854;2023-03-13T06:17:09;3.08;;;2.13;;
8694;SDS011;65580;49.446;6.854;2023-03-13T06:21:14;4.85;;;2.33;;
8694;SDS011;65580;49.446;6.854;2023-03-13T06:25:18;3.25;;;1.90;;
8694;SDS011;65580;49.446;6.854;2023-03-13T06:29:23;4.75;;;1.90;;
8694;SDS011;65580;49.446;6.854;2023-03-13T06:33:28;4.40;;;2.10;;
8694;SDS011;65580;49.446;6.854;2023-03-13T06:37:31;5.30;;;2.28;;
8694;SDS011;65580;49.446;6.854;2023-03-13T06:41:38;4.22;;;2.50;;
8694;SDS011;65580;49.446;6.854;2023-03-13T06:45:42;5.07;;;2.40;;
8694;SDS011;65580;49.446;6.854;2023-03-13T06:49:47;4.80;;;2.38;;
8694;SDS011;65580;49.446;6.854;2023-03-13T06:53:52;5.15;;;2.30;;
8694;SDS011;65580;49.446;6.854;2023-03-13T06:57:59;5.35;;;2.63;;
8694;SDS011;65580;49.446;6.854;2023-03-13T07:02:02;4.68;;;2.00;;
8694;SDS011;65580;49.446;6.854;2023-03-13T07:06:07;5.30;;;2.30;;
8694;SDS011;65580;49.446;6.854;2023-03-13T07:10:11;3.92;;;2.45;;
8694;SDS011;65580;49.446;6.854;2023-03-13T07:14:15;7.30;;;2.70;;
8694;SDS011;65580;49.446;6.854;2023-03-13T07:18:19;5.35;;;2.10;;
8694;SDS011;65580;49.446;6.854;2023-03-13T07:22:25;8.82;;;2.45;;
8694;SDS011;65580;49.446;6.854;2023-03-13T07:26:28;6.68;;;2.58;;
8694;SDS011;65580;49.446;6.854;2023-03-13T07:30:31;6.93;;;2.58;;
8694;SDS011;65580;49.446;6.854;2023-03-13T07:34:36;5.05;;;2.60;;
8694;SDS011;65580;49.446;6.854;2023-03-13T07:38:41;5.45;;;2.35;;
8694;SDS011;65580;49.446;6.854;2023-03-13T07:42:44;7.95;;;2.70;;
8694;SDS011;65580;49.446;6.854;2023-03-13T07:46:47;4.22;;;2.17;;
8694;SDS011;65580;49.446;6.854;2023-03-13T07:50:50;5.40;;;2.80;;
8694;SDS011;65580;49.446;6.854;2023-03-13T07:54:59;6.40;;;2.75;;
8694;SDS011;65580;49.446;6.854;2023-03-13T07:59:03;3.50;;;2.20;;
8694;SDS011;65580;49.446;6.854;2023-03-13T08:03:07;5.88;;;2.67;;
8694;SDS011;65580;49.446;6.854;2023-03-13T08:07:11;4.78;;;2.75;;
8694;SDS011;65580;49.446;6.854;2023-03-13T08:11:20;8.35;;;3.40;;
8694;SDS011;65580;49.446;6.854;2023-03-13T08:15:25;6.95;;;3.72;;
8694;SDS011;65580;49.446;6.854;2023-03-13T08:19:29;6.15;;;3.47;;
8694;SDS011;65580;49.446;6.854;2023-03-13T08:27:37;8.20;;;4.40;;
8694;SDS011;65580;49.446;6.854;2023-03-13T08:31:42;13.13;;;4.70;;
8694;SDS011;65580;49.446;6.854;2023-03-13T08:35:45;9.32;;;4.75;;
8694;SDS011;65580;49.446;6.854;2023-03-13T08:43:53;12.02;;;4.55;;
8694;SDS011;65580;49.446;6.854;2023-03-13T08:47:57;16.08;;;5.13;;
8694;SDS011;65580;49.446;6.854;2023-03-13T08:51:59;16.73;;;5.65;;
8694;SDS011;65580;49.446;6.854;2023-03-13T08:56:03;15.68;;;6.05;;
8694;SDS011;65580;49.446;6.854;2023-03-13T09:00:09;8.38;;;3.92;;
8694;SDS011;65580;49.446;6.854;2023-03-13T09:04:15;5.78;;;2.88;;
8694;SDS011;65580;49.446;6.854;2023-03-13T09:08:19;5.30;;;3.05;;
8694;SDS011;65580;49.446;6.854;2023-03-13T09:12:22;9.50;;;2.58;;
8694;SDS011;65580;49.446;6.854;2023-03-13T09:16:33;10.82;;;2.53;;
8694;SDS011;65580;49.446;6.854;2023-03-13T09:20:37;6.85;;;2.83;;
8694;SDS011;65580;49.446;6.854;2023-03-13T09:24:40;6.82;;;3.35;;
8694;SDS011;65580;49.446;6.854;2023-03-13T09:28:45;7.57;;;3.00;;
8694;SDS011;65580;49.446;6.854;2023-03-13T09:32:49;7.05;;;2.78;;
8694;SDS011;65580;49.446;6.854;2023-03-13T09:36:53;6.43;;;2.70;;
8694;SDS011;65580;49.446;6.854;2023-03-13T09:41:00;7.32;;;2.60;;
8694;SDS011;65580;49.446;6.854;2023-03-13T09:45:07;6.05;;;2.80;;
8694;SDS011;65580;49.446;6.854;2023-03-13T09:49:21;7.93;;;2.70;;
8694;SDS011;65580;49.446;6.854;2023-03-13T09:53:31;4.43;;;2.80;;
8694;SDS011;65580;49.446;6.854;2023-03-13T09:57:39;6.63;;;3.15;;
8694;SDS011;65580;49.446;6.854;2023-03-13T10:05:52;6.55;;;2.97;;
8694;SDS011;65580;49.446;6.854;2023-03-13T10:09:58;7.63;;;2.92;;
8694;SDS011;65580;49.446;6.854;2023-03-13T10:14:05;5.70;;;2.70;;
8694;SDS011;65580;49.446;6.854;2023-03-13T10:18:16;6.07;;;2.80;;
8694;SDS011;65580;49.446;6.854;2023-03-13T10:22:24;7.10;;;2.47;;
8694;SDS011;65580;49.446;6.854;2023-03-13T10:26:31;3.95;;;2.35;;
8694;SDS011;65580;49.446;6.854;2023-03-13T10:30:36;6.65;;;2.47;;
8694;SDS011;65580;49.446;6.854;2023-03-13T10:34:49;7.25;;;2.25;;
8694;SDS011;65580;49.446;6.854;2023-03-13T10:38:55;6.20;;;2.45;;
8694;SDS011;65580;49.446;6.854;2023-03-13T10:42:59;8.57;;;2.70;;
8694;SDS011;65580;49.446;6.854;2023-03-13T10:47:10;12.07;;;2.47;;
8694;SDS011;65580;49.446;6.854;2023-03-13T10:51:19;9.02;;;2.40;;
8694;SDS011;65580;49.446;6.854;2023-03-13T10:55:25;9.10;;;2.78;;
8694;SDS011;65580;49.446;6.854;2023-03-13T10:59:28;3.67;;;1.88;;
8694;SDS011;65580;49.446;6.854;2023-03-13T11:03:31;6.32;;;1.98;;
8694;SDS011;65580;49.446;6.854;2023-03-13T11:11:47;3.63;;;2.03;;
8694;SDS011;65580;49.446;6.854;2023-03-13T11:15:51;7.57;;;2.00;;
8694;SDS011;65580;49.446;6.854;2023-03-13T11:19:59;3.92;;;2.20;;
8694;SDS011;65580;49.446;6.854;2023-03-13T11:28:25;6.10;;;2.17;;
8694;SDS011;65580;49.446;6.854;2023-03-13T11:32:34;6.72;;;2.10;;
8694;SDS011;65580;49.446;6.854;2023-03-13T11:36:42;5.93;;;2.13;;
8694;SDS011;65580;49.446;6.854;2023-03-13T11:40:48;6.00;;;2.15;;
8694;SDS011;65580;49.446;6.854;2023-03-13T11:44:58;4.85;;;2.03;;
8694;SDS011;65580;49.446;6.854;2023-03-13T11:49:12;5.05;;;2.00;;
8694;SDS011;65580;49.446;6.854;2023-03-13T11:53:36;5.53;;;2.00;;
8694;SDS011;65580;49.446;6.854;2023-03-13T11:57:47;9.05;;;2.25;;
8694;SDS011;65580;49.446;6.854;2023-03-13T12:01:56;8.20;;;2.13;;
8694;SDS011;65580;49.446;6.854;2023-03-13T12:06:01;3.40;;;1.60;;
8694;SDS011;65580;49.446;6.854;2023-03-13T12:10:11;6.35;;;1.80;;
8694;SDS011;65580;49.446;6.854;2023-03-13T12:14:20;5.63;;;1.98;;
8694;SDS011;65580;49.446;6.854;2023-03-13T12:18:28;4.50;;;1.50;;
8694;SDS011;65580;49.446;6.854;2023-03-13T12:22:35;2.72;;;1.65;;
8694;SDS011;65580;49.446;6.854;2023-03-13T12:26:40;5.10;;;1.70;;
8694;SDS011;65580;49.446;6.854;2023-03-13T12:30:46;3.83;;;1.80;;
8694;SDS011;65580;49.446;6.854;2023-03-13T12:34:56;3.40;;;1.75;;
8694;SDS011;65580;49.446;6.854;2023-03-13T12:39:08;4.20;;;1.95;;
8694;SDS011;65580;49.446;6.854;2023-03-13T12:47:20;5.43;;;1.70;;
8694;SDS011;65580;49.446;6.854;2023-03-13T12:51:33;2.42;;;1.48;;
8694;SDS011;65580;49.446;6.854;2023-03-13T13:00:27;3.03;;;1.70;;
8694;SDS011;65580;49.446;6.854;2023-03-13T13:04:31;2.33;;;1.52;;
8694;SDS011;65580;49.446;6.854;2023-03-13T13:08:37;3.78;;;1.77;;
8694;SDS011;65580;49.446;6.854;2023-03-13T13:12:42;4.65;;;1.48;;
8694;SDS011;65580;49.446;6.854;2023-03-13T13:16:47;3.88;;;1.73;;
8694;SDS011;65580;49.446;6.854;2023-03-13T13:25:29;6.00;;;1.75;;
8694;SDS011;65580;49.446;6.854;2023-03-13T13:33:56;3.17;;;1.60;;
8694;SDS011;65580;49.446;6.854;2023-03-13T13:42:43;2.40;;;1.58;;
8694;SDS011;65580;49.446;6.854;2023-03-13T13:46:48;3.05;;;1.75;;
8694;SDS011;65580;49.446;6.854;2023-03-13T13:55:40;2.72;;;1.30;;
8694;SDS011;65580;49.446;6.854;2023-03-13T13:59:47;5.15;;;1.90;;
8694;SDS011;65580;49.446;6.854;2023-03-13T14:04:06;6.60;;;2.10;;
8694;SDS011;65580;49.446;6.854;2023-03-13T14:08:13;3.60;;;1.42;;
8694;SDS011;65580;49.446;6.854;2023-03-13T14:12:25;3.42;;;1.60;;
8694;SDS011;65580;49.446;6.854;2023-03-13T14:16:31;5.68;;;1.58;;
8694;SDS011;65580;49.446;6.854;2023-03-13T14:20:35;2.95;;;1.48;;
8694;SDS011;65580;49.446;6.854;2023-03-13T14:24:38;4.55;;;1.35;;
8694;SDS011;65580;49.446;6.854;2023-03-13T14:28:44;3.85;;;1.20;;
8694;SDS011;65580;49.446;6.854;2023-03-13T14:32:58;4.18;;;1.33;;
8694;SDS011;65580;49.446;6.854;2023-03-13T14:37:02;2.92;;;1.00;;
8694;SDS011;65580;49.446;6.854;2023-03-13T14:41:40;7.05;;;1.52;;
8694;SDS011;65580;49.446;6.854;2023-03-13T14:45:45;10.13;;;3.35;;
8694;SDS011;65580;49.446;6.854;2023-03-13T14:49:55;7.20;;;3.70;;
8694;SDS011;65580;49.446;6.854;2023-03-13T14:54:00;7.63;;;4.05;;
8694;SDS011;65580;49.446;6.854;2023-03-13T14:58:05;6.28;;;3.70;;
8694;SDS011;65580;49.446;6.854;2023-03-13T15:02:27;8.13;;;3.72;;
8694;SDS011;65580;49.446;6.854;2023-03-13T15:06:34;6.47;;;2.83;;
8694;SDS011;65580;49.446;6.854;2023-03-13T15:10:37;1.73;;;1.40;;
8694;SDS011;65580;49.446;6.854;2023-03-13T15:14:41;7.03;;;1.63;;
8694;SDS011;65580;49.446;6.854;2023-03-13T15:18:46;4.78;;;2.00;;
8694;SDS011;65580;49.446;6.854;2023-03-13T15:22:51;6.00;;;2.15;;
8694;SDS011;65580;49.446;6.854;2023-03-13T15:26:53;3.92;;;2.08;;
8694;SDS011;65580;49.446;6.854;2023-03-13T15:30:56;5.13;;;2.13;;
8694;SDS011;65580;49.446;6.854;2023-03-13T15:34:59;6.88;;;2.40;;
8694;SDS011;65580;49.446;6.854;2023-03-13T15:39:08;3.50;;;1.50;;
8694;SDS011;65580;49.446;6.854;2023-03-13T15:43:12;3.80;;;1.70;;
8694;SDS011;65580;49.446;6.854;2023-03-13T15:47:16;7.70;;;3.63;;
8694;SDS011;65580;49.446;6.854;2023-03-13T15:51:20;6.78;;;3.13;;
8694;SDS011;65580;49.446;6.854;2023-03-13T15:55:25;3.85;;;2.13;;
8694;SDS011;65580;49.446;6.854;2023-03-13T15:59:29;3.70;;;2.22;;
8694;SDS011;65580;49.446;6.854;2023-03-13T16:03:32;2.97;;;1.83;;
8694;SDS011;65580;49.446;6.854;2023-03-13T16:07:35;5.00;;;2.20;;
8694;SDS011;65580;49.446;6.854;2023-03-13T16:11:39;5.05;;;2.60;;
8694;SDS011;65580;49.446;6.854;2023-03-13T16:15:42;5.10;;;2.10;;
8694;SDS011;65580;49.446;6.854;2023-03-13T16:19:45;5.05;;;2.00;;
8694;SDS011;65580;49.446;6.854;2023-03-13T16:23:48;6.18;;;2.15;;
8694;SDS011;65580;49.446;6.854;2023-03-13T16:27:53;4.95;;;2.90;;
8694;SDS011;65580;49.446;6.854;2023-03-13T16:31:58;7.03;;;2.70;;
8694;SDS011;65580;49.446;6.854;2023-03-13T16:36:04;4.35;;;2.45;;
8694;SDS011;65580;49.446;6.854;2023-03-13T16:40:14;3.60;;;2.42;;
8694;SDS011;65580;49.446;6.854;2023-03-13T16:44:20;6.88;;;4.05;;
8694;SDS011;65580;49.446;6.854;2023-03-13T16:48:28;8.18;;;4.13;;
8694;SDS011;65580;49.446;6.854;2023-03-13T16:52:35;10.70;;;4.07;;
8694;SDS011;65580;49.446;6.854;2023-03-13T16:56:39;5.43;;;2.88;;
8694;SDS011;65580;49.446;6.854;2023-03-13T17:00:45;4.53;;;2.70;;
8694;SDS011;65580;49.446;6.854;2023-03-13T17:05:08;5.10;;;2.75;;
8694;SDS011;65580;49.446;6.854;2023-03-13T17:09:14;6.38;;;2.58;;
8694;SDS011;65580;49.446;6.854;2023-03-13T17:13:17;5.22;;;1.98;;
8694;SDS011;65580;49.446;6.854;2023-03-13T17:17:24;2.45;;;1.67;;
8694;SDS011;65580;49.446;6.854;2023-03-13T17:21:29;2.22;;;1.70;;
8694;SDS011;65580;49.446;6.854;2023-03-13T17:25:32;3.90;;;1.90;;
8694;SDS011;65580;49.446;6.854;2023-03-13T17:29:35;2.42;;;1.73;;
8694;SDS011;65580;49.446;6.854;2023-03-13T17:33:47;3.20;;;1.95;;
8694;SDS011;65580;49.446;6.854;2023-03-13T17:37:50;11.40;;;4.75;;
8694;SDS011;65580;49.446;6.854;2023-03-13T17:41:53;13.13;;;7.75;;
8694;SDS011;65580;49.446;6.854;2023-03-13T17:45:57;5.18;;;2.45;;
8694;SDS011;65580;49.446;6.854;2023-03-13T17:50:05;6.38;;;2.50;;
8694;SDS011;65580;49.446;6.854;2023-03-13T17:54:17;5.07;;;1.70;;
8694;SDS011;65580;49.446;6.854;2023-03-13T17:58:22;1.73;;;1.00;;
8694;SDS011;65580;49.446;6.854;2023-03-13T18:02:31;3.20;;;1.10;;
8694;SDS011;65580;49.446;6.854;2023-03-13T18:06:38;2.25;;;1.02;;
8694;SDS011;65580;49.446;6.854;2023-03-13T18:10:46;2.72;;;1.38;;
8694;SDS011;65580;49.446;6.854;2023-03-13T18:18:53;4.50;;;2.20;;
8694;SDS011;65580;49.446;6.854;2023-03-13T18:22:58;5.35;;;2.28;;
8694;SDS011;65580;49.446;6.854;2023-03-13T18:27:01;5.75;;;2.55;;
8694;SDS011;65580;49.446;6.854;2023-03-13T18:31:05;12.75;;;4.30;;
8694;SDS011;65580;49.446;6.854;2023-03-13T18:35:12;7.90;;;3.33;;
8694;SDS011;65580;49.446;6.854;2023-03-13T18:39:17;4.47;;;1.88;;
8694;SDS011;65580;49.446;6.854;2023-03-13T18:43:21;3.22;;;1.20;;
8694;SDS011;65580;49.446;6.854;2023-03-13T18:47:26;2.60;;;1.00;;
8694;SDS011;65580;49.446;6.854;2023-03-13T18:55:34;4.72;;;2.08;;
8694;SDS011;65580;49.446;6.854;2023-03-13T18:59:37;2.70;;;1.60;;
8694;SDS011;65580;49.446;6.854;2023-03-13T19:03:42;7.60;;;3.05;;
8694;SDS011;65580;49.446;6.854;2023-03-13T19:07:46;7.68;;;3.08;;
8694;SDS011;65580;49.446;6.854;2023-03-13T19:11:50;4.70;;;3.05;;
8694;SDS011;65580;49.446;6.854;2023-03-13T19:15:53;8.45;;;5.45;;
8694;SDS011;65580;49.446;6.854;2023-03-13T19:19:56;14.77;;;5.82;;
8694;SDS011;65580;49.446;6.854;2023-03-13T19:23:59;5.65;;;3.80;;
8694;SDS011;65580;49.446;6.854;2023-03-13T19:28:07;5.65;;;3.90;;
8694;SDS011;65580;49.446;6.854;2023-03-13T19:32:11;4.10;;;3.13;;
8694;SDS011;65580;49.446;6.854;2023-03-13T19:36:16;9.95;;;5.20;;
8694;SDS011;65580;49.446;6.854;2023-03-13T19:40:20;10.45;;;3.92;;
8694;SDS011;65580;49.446;6.854;2023-03-13T19:44:25;9.40;;;5.28;;
8694;SDS011;65580;49.446;6.854;2023-03-13T19:48:28;7.50;;;3.85;;
8694;SDS011;65580;49.446;6.854;2023-03-13T19:52:31;9.93;;;4.35;;
8694;SDS011;65580;49.446;6.854;2023-03-13T19:56:35;5.75;;;3.85;;
8694;SDS011;65580;49.446;6.854;2023-03-13T20:00:41;8.48;;;4.15;;
8694;SDS011;65580;49.446;6.854;2023-03-13T20:04:44;5.90;;;3.72;;
8694;SDS011;65580;49.446;6.854;2023-03-13T20:08:47;11.65;;;5.57;;
8694;SDS011;65580;49.446;6.854;2023-03-13T20:12:50;8.57;;;4.70;;
8694;SDS011;65580;49.446;6.854;2023-03-13T20:16:55;8.65;;;3.80;;
8694;SDS011;65580;49.446;6.854;2023-03-13T20:20:58;7.35;;;4.45;;
8694;SDS011;65580;49.446;6.854;2023-03-13T20:25:01;6.45;;;3.55;;
8694;SDS011;65580;49.446;6.854;2023-03-13T20:29:04;5.20;;;3.35;;
8694;SDS011;65580;49.446;6.854;2023-03-13T20:33:08;5.65;;;3.45;;
8694;SDS011;65580;49.446;6.854;2023-03-13T20:37:12;8.48;;;3.03;;
8694;SDS011;65580;49.446;6.854;2023-03-13T20:41:15;3.80;;;2.38;;
8694;SDS011;65580;49.446;6.854;2023-03-13T20:45:21;5.60;;;2.75;;
8694;SDS011;65580;49.446;6.854;2023-03-13T20:49:25;8.93;;;2.60;;
8694;SDS011;65580;49.446;6.854;2023-03-13T20:53:28;7.85;;;2.92;;
8694;SDS011;65580;49.446;6.854;2023-03-13T20:57:31;3.08;;;2.03;;
8694;SDS011;65580;49.446;6.854;2023-03-13T21:01:34;5.40;;;3.00;;
8694;SDS011;65580;49.446;6.854;2023-03-13T21:05:38;4.43;;;2.70;;
8694;SDS011;65580;49.446;6.854;2023-03-13T21:09:42;12.90;;;5.07;;
8694;SDS011;65580;49.446;6.854;2023-03-13T21:13:45;4.25;;;2.67;;
8694;SDS011;65580;49.446;6.854;2023-03-13T21:17:49;5.25;;;2.67;;
8694;SDS011;65580;49.446;6.854;2023-03-13T21:21:55;8.25;;;2.63;;
8694;SDS011;65580;49.446;6.854;2023-03-13T21:25:58;12.50;;;5.20;;
8694;SDS011;65580;49.446;6.854;2023-03-13T21:30:02;5.47;;;2.33;;
8694;SDS011;65580;49.446;6.854;2023-03-13T21:34:06;8.00;;;2.75;;
8694;SDS011;65580;49.446;6.854;2023-03-13T21:38:13;4.07;;;1.80;;
8694;SDS011;65580;49.446;6.854;2023-03-13T21:42:16;4.60;;;2.00;;
8694;SDS011;65580;49.446;6.854;2023-03-13T21:46:19;6.53;;;2.10;;
8694;SDS011;65580;49.446;6.854;2023-03-13T21:50:24;5.25;;;1.90;;
8694;SDS011;65580;49.446;6.854;2023-03-13T21:54:28;7.65;;;2.67;;
8694;SDS011;65580;49.446;6.854;2023-03-13T21:58:33;5.28;;;2.08;;
8694;SDS011;65580;49.446;6.854;2023-03-13T22:06:40;6.72;;;2.70;;
8694;SDS011;65580;49.446;6.854;2023-03-13T22:10:47;8.30;;;2.50;;
8694;SDS011;65580;49.446;6.854;2023-03-13T22:14:52;6.88;;;2.20;;
8694;SDS011;65580;49.446;6.854;2023-03-13T22:18:57;4.75;;;1.95;;
8694;SDS011;65580;49.446;6.854;2023-03-13T22:23:01;6.53;;;1.90;;
8694;SDS011;65580;49.446;6.854;2023-03-13T22:27:06;4.70;;;1.70;;
8694;SDS011;65580;49.446;6.854;2023-03-13T22:31:10;8.93;;;2.35;;
8694;SDS011;65580;49.446;6.854;2023-03-13T22:35:14;5.72;;;1.98;;
8694;SDS011;65580;49.446;6.854;2023-03-13T22:39:17;7.72;;;2.20;;
8694;SDS011;65580;49.446;6.854;2023-03-13T22:43:21;6.63;;;1.80;;
8694;SDS011;65580;49.446;6.854;2023-03-13T22:47:24;7.70;;;2.00;;
8694;SDS011;65580;49.446;6.854;2023-03-13T22:51:26;7.00;;;2.00;;
8694;SDS011;65580;49.446;6.854;2023-03-13T22:55:30;3.28;;;2.22;;
8694;SDS011;65580;49.446;6.854;2023-03-13T22:59:35;4.75;;;2.08;;
8694;SDS011;65580;49.446;6.854;2023-03-13T23:03:39;6.78;;;1.70;;
8694;SDS011;65580;49.446;6.854;2023-03-13T23:07:43;8.18;;;1.95;;
8694;SDS011;65580;49.446;6.854;2023-03-13T23:11:47;14.48;;;2.30;;
8694;SDS011;65580;49.446;6.854;2023-03-13T23:15:53;7.95;;;1.77;;
8694;SDS011;65580;49.446;6.854;2023-03-13T23:19:58;6.55;;;1.75;;
8694;SDS011;65580;49.446;6.854;2023-03-13T23:28:05;9.90;;;1.90;;
8694;SDS011;65580;49.446;6.854;2023-03-13T23:32:10;11.85;;;2.00;;
8694;SDS011;65580;49.446;6.854;2023-03-13T23:36:15;10.82;;;1.98;;
8694;SDS011;65580;49.446;6.854;2023-03-13T23:40:23;10.35;;;1.70;;
8694;SDS011;65580;49.446;6.854;2023-03-13T23:44:29;9.68;;;2.08;;
8694;SDS011;65580;49.446;6.854;2023-03-13T23:48:34;7.35;;;1.65;;
8694;SDS011;65580;49.446;6.854;2023-03-13T23:52:37;9.50;;;1.92;;
8694;SDS011;65580;49.446;6.854;2023-03-13T23:56:41;9.48;;;1.55;;
